sensor_id;sensor_type;location;lat;lon;timestamp;P1;durP1;ratioP1;P2;durP2;ratioP2
25023;SDS011;13033;50.936;5.334;2024-03-07T00:00:33;76.05;;;37.17;;
25023;SDS011;13033;50.936;5.334;2024-03-07T00:03:00;82.53;;;39.53;;
25023;SDS011;13033;50.936;5.334;2024-03-07T00:05:26;74.68;;;37.38;;
25023;SDS011;13033;50.936;5.334;2024-03-07T00:07:51;78.43;;;38.55;;
25023;SDS011;13033;50.936;5.334;2024-03-07T00:10:18;82.38;;;40.17;;
25023;SDS011;13033;50.936;5.334;2024-03-07T00:12:43;78.57;;;40.75;;
25023;SDS011;13033;50.936;5.334;2024-03-07T00:15:10;76.18;;;37.83;;
25023;SDS011;13033;50.936;5.334;2024-03-07T00:17:37;76.68;;;37.58;;
25023;SDS011;13033;50.936;5.334;2024-03-07T00:20:03;76.95;;;38.97;;
25023;SDS011;13033;50.936;5.334;2024-03-07T00:22:33;79.63;;;38.03;;
25023;SDS011;13033;50.936;5.334;2024-03-07T00:25:00;82.50;;;38.17;;
25023;SDS011;13033;50.936;5.334;2024-03-07T00:27:27;83.72;;;40.60;;
25023;SDS011;13033;50.936;5.334;2024-03-07T00:29:53;78.78;;;39.53;;
25023;SDS011;13033;50.936;5.334;2024-03-07T00:32:19;75.10;;;38.28;;
25023;SDS011;13033;50.936;5.334;2024-03-07T00:34:46;81.22;;;39.33;;
25023;SDS011;13033;50.936;5.334;2024-03-07T00:37:12;80.95;;;37.92;;
25023;SDS011;13033;50.936;5.334;2024-03-07T00:39:38;77.72;;;38.78;;
25023;SDS011;13033;50.936;5.334;2024-03-07T00:42:03;78.63;;;37.75;;
25023;SDS011;13033;50.936;5.334;2024-03-07T00:44:29;84.03;;;38.22;;
25023;SDS011;13033;50.936;5.334;2024-03-07T00:46:55;86.40;;;40.08;;
25023;SDS011;13033;50.936;5.334;2024-03-07T00:49:22;79.90;;;38.67;;
25023;SDS011;13033;50.936;5.334;2024-03-07T00:51:48;74.75;;;37.92;;
25023;SDS011;13033;50.936;5.334;2024-03-07T00:54:14;80.03;;;37.80;;
25023;SDS011;13033;50.936;5.334;2024-03-07T00:56:40;78.75;;;38.88;;
25023;SDS011;13033;50.936;5.334;2024-03-07T00:59:05;73.63;;;37.72;;
25023;SDS011;13033;50.936;5.334;2024-03-07T01:01:31;79.82;;;38.88;;
25023;SDS011;13033;50.936;5.334;2024-03-07T01:04:03;78.07;;;38.92;;
25023;SDS011;13033;50.936;5.334;2024-03-07T01:06:28;79.57;;;37.97;;
25023;SDS011;13033;50.936;5.334;2024-03-07T01:08:54;80.63;;;38.97;;
25023;SDS011;13033;50.936;5.334;2024-03-07T01:11:20;82.00;;;38.67;;
25023;SDS011;13033;50.936;5.334;2024-03-07T01:13:46;76.07;;;38.35;;
25023;SDS011;13033;50.936;5.334;2024-03-07T01:16:11;81.50;;;39.22;;
25023;SDS011;13033;50.936;5.334;2024-03-07T01:18:39;87.15;;;40.83;;
25023;SDS011;13033;50.936;5.334;2024-03-07T01:21:04;80.07;;;39.13;;
25023;SDS011;13033;50.936;5.334;2024-03-07T01:23:31;83.72;;;39.42;;
25023;SDS011;13033;50.936;5.334;2024-03-07T01:25:57;88.15;;;41.08;;
25023;SDS011;13033;50.936;5.334;2024-03-07T01:28:24;84.28;;;40.35;;
25023;SDS011;13033;50.936;5.334;2024-03-07T01:30:51;84.88;;;40.03;;
25023;SDS011;13033;50.936;5.334;2024-03-07T01:33:18;88.18;;;40.88;;
25023;SDS011;13033;50.936;5.334;2024-03-07T01:35:44;82.55;;;39.47;;
25023;SDS011;13033;50.936;5.334;2024-03-07T01:38:10;93.50;;;40.17;;
25023;SDS011;13033;50.936;5.334;2024-03-07T01:40:39;79.32;;;38.78;;
25023;SDS011;13033;50.936;5.334;2024-03-07T01:43:08;83.95;;;39.65;;
25023;SDS011;13033;50.936;5.334;2024-03-07T01:45:35;89.40;;;40.45;;
25023;SDS011;13033;50.936;5.334;2024-03-07T01:48:04;85.97;;;41.22;;
25023;SDS011;13033;50.936;5.334;2024-03-07T01:50:31;87.88;;;40.05;;
25023;SDS011;13033;50.936;5.334;2024-03-07T01:52:57;86.68;;;40.58;;
25023;SDS011;13033;50.936;5.334;2024-03-07T01:55:26;87.20;;;40.35;;
25023;SDS011;13033;50.936;5.334;2024-03-07T01:57:52;87.38;;;39.88;;
25023;SDS011;13033;50.936;5.334;2024-03-07T02:00:23;86.97;;;40.53;;
25023;SDS011;13033;50.936;5.334;2024-03-07T02:02:49;86.18;;;40.78;;
25023;SDS011;13033;50.936;5.334;2024-03-07T02:05:15;86.35;;;40.95;;
25023;SDS011;13033;50.936;5.334;2024-03-07T02:07:41;85.22;;;40.63;;
25023;SDS011;13033;50.936;5.334;2024-03-07T02:10:08;92.90;;;40.35;;
25023;SDS011;13033;50.936;5.334;2024-03-07T02:12:34;95.38;;;42.60;;
25023;SDS011;13033;50.936;5.334;2024-03-07T02:15:01;86.20;;;41.15;;
25023;SDS011;13033;50.936;5.334;2024-03-07T02:17:27;96.32;;;41.03;;
25023;SDS011;13033;50.936;5.334;2024-03-07T02:19:53;89.93;;;41.60;;
25023;SDS011;13033;50.936;5.334;2024-03-07T02:22:19;91.05;;;39.47;;
25023;SDS011;13033;50.936;5.334;2024-03-07T02:24:45;92.63;;;41.95;;
25023;SDS011;13033;50.936;5.334;2024-03-07T02:27:12;89.40;;;40.08;;
25023;SDS011;13033;50.936;5.334;2024-03-07T02:29:39;91.38;;;41.75;;
25023;SDS011;13033;50.936;5.334;2024-03-07T02:32:06;91.68;;;40.17;;
25023;SDS011;13033;50.936;5.334;2024-03-07T02:34:32;94.82;;;40.95;;
25023;SDS011;13033;50.936;5.334;2024-03-07T02:36:57;91.65;;;41.38;;
25023;SDS011;13033;50.936;5.334;2024-03-07T02:39:23;95.05;;;41.17;;
25023;SDS011;13033;50.936;5.334;2024-03-07T02:41:52;87.38;;;40.55;;
25023;SDS011;13033;50.936;5.334;2024-03-07T02:44:18;97.47;;;41.63;;
25023;SDS011;13033;50.936;5.334;2024-03-07T02:46:44;96.35;;;41.08;;
25023;SDS011;13033;50.936;5.334;2024-03-07T02:49:12;98.88;;;41.97;;
25023;SDS011;13033;50.936;5.334;2024-03-07T02:51:40;97.97;;;41.92;;
25023;SDS011;13033;50.936;5.334;2024-03-07T02:54:08;95.90;;;41.78;;
25023;SDS011;13033;50.936;5.334;2024-03-07T02:56:34;100.32;;;42.53;;
25023;SDS011;13033;50.936;5.334;2024-03-07T02:59:00;109.45;;;45.25;;
25023;SDS011;13033;50.936;5.334;2024-03-07T03:01:26;90.78;;;41.03;;
25023;SDS011;13033;50.936;5.334;2024-03-07T03:03:52;96.43;;;42.10;;
25023;SDS011;13033;50.936;5.334;2024-03-07T03:06:17;108.03;;;44.05;;
25023;SDS011;13033;50.936;5.334;2024-03-07T03:08:45;103.65;;;43.90;;
25023;SDS011;13033;50.936;5.334;2024-03-07T03:11:12;106.70;;;41.95;;
25023;SDS011;13033;50.936;5.334;2024-03-07T03:13:42;102.45;;;41.55;;
25023;SDS011;13033;50.936;5.334;2024-03-07T03:16:08;98.97;;;42.75;;
25023;SDS011;13033;50.936;5.334;2024-03-07T03:18:37;103.38;;;43.25;;
25023;SDS011;13033;50.936;5.334;2024-03-07T03:21:02;106.15;;;44.72;;
25023;SDS011;13033;50.936;5.334;2024-03-07T03:23:28;112.72;;;43.90;;
25023;SDS011;13033;50.936;5.334;2024-03-07T03:25:54;103.85;;;42.63;;
25023;SDS011;13033;50.936;5.334;2024-03-07T03:28:20;113.88;;;44.38;;
25023;SDS011;13033;50.936;5.334;2024-03-07T03:30:47;110.47;;;44.22;;
25023;SDS011;13033;50.936;5.334;2024-03-07T03:33:14;106.38;;;43.40;;
25023;SDS011;13033;50.936;5.334;2024-03-07T03:35:40;110.72;;;44.90;;
25023;SDS011;13033;50.936;5.334;2024-03-07T03:38:06;101.97;;;43.20;;
25023;SDS011;13033;50.936;5.334;2024-03-07T03:40:32;111.72;;;43.83;;
25023;SDS011;13033;50.936;5.334;2024-03-07T03:42:59;109.30;;;44.83;;
25023;SDS011;13033;50.936;5.334;2024-03-07T03:45:25;103.43;;;43.47;;
25023;SDS011;13033;50.936;5.334;2024-03-07T03:47:51;102.07;;;44.67;;
25023;SDS011;13033;50.936;5.334;2024-03-07T03:50:18;108.70;;;45.22;;
25023;SDS011;13033;50.936;5.334;2024-03-07T03:52:43;103.45;;;44.78;;
25023;SDS011;13033;50.936;5.334;2024-03-07T03:55:09;117.38;;;45.22;;
25023;SDS011;13033;50.936;5.334;2024-03-07T03:57:37;109.25;;;45.28;;
25023;SDS011;13033;50.936;5.334;2024-03-07T04:00:05;119.22;;;45.60;;
25023;SDS011;13033;50.936;5.334;2024-03-07T04:02:41;116.07;;;44.97;;
25023;SDS011;13033;50.936;5.334;2024-03-07T04:05:14;115.45;;;46.45;;
25023;SDS011;13033;50.936;5.334;2024-03-07T04:07:41;113.43;;;44.53;;
25023;SDS011;13033;50.936;5.334;2024-03-07T04:10:07;120.82;;;45.90;;
25023;SDS011;13033;50.936;5.334;2024-03-07T04:12:42;117.88;;;44.72;;
25023;SDS011;13033;50.936;5.334;2024-03-07T04:15:09;122.03;;;45.75;;
25023;SDS011;13033;50.936;5.334;2024-03-07T04:17:36;111.25;;;46.25;;
25023;SDS011;13033;50.936;5.334;2024-03-07T04:20:02;115.82;;;45.00;;
25023;SDS011;13033;50.936;5.334;2024-03-07T04:22:35;114.93;;;44.20;;
25023;SDS011;13033;50.936;5.334;2024-03-07T04:25:04;111.60;;;45.22;;
25023;SDS011;13033;50.936;5.334;2024-03-07T04:27:31;114.65;;;43.55;;
25023;SDS011;13033;50.936;5.334;2024-03-07T04:29:59;117.57;;;44.22;;
25023;SDS011;13033;50.936;5.334;2024-03-07T04:32:28;114.32;;;44.95;;
25023;SDS011;13033;50.936;5.334;2024-03-07T04:34:54;112.55;;;45.53;;
25023;SDS011;13033;50.936;5.334;2024-03-07T04:37:22;107.18;;;43.83;;
25023;SDS011;13033;50.936;5.334;2024-03-07T04:39:49;112.78;;;43.75;;
25023;SDS011;13033;50.936;5.334;2024-03-07T04:42:15;117.57;;;44.50;;
25023;SDS011;13033;50.936;5.334;2024-03-07T04:44:41;108.45;;;43.30;;
25023;SDS011;13033;50.936;5.334;2024-03-07T04:47:07;108.15;;;43.65;;
25023;SDS011;13033;50.936;5.334;2024-03-07T04:49:33;116.70;;;45.20;;
25023;SDS011;13033;50.936;5.334;2024-03-07T04:52:00;115.82;;;45.70;;
25023;SDS011;13033;50.936;5.334;2024-03-07T04:54:27;109.60;;;43.55;;
25023;SDS011;13033;50.936;5.334;2024-03-07T04:56:53;111.88;;;44.42;;
25023;SDS011;13033;50.936;5.334;2024-03-07T04:59:20;109.82;;;43.88;;
25023;SDS011;13033;50.936;5.334;2024-03-07T05:01:46;110.05;;;42.97;;
25023;SDS011;13033;50.936;5.334;2024-03-07T05:04:14;112.32;;;44.75;;
25023;SDS011;13033;50.936;5.334;2024-03-07T05:06:41;112.50;;;44.90;;
25023;SDS011;13033;50.936;5.334;2024-03-07T05:09:08;152.57;;;47.15;;
25023;SDS011;13033;50.936;5.334;2024-03-07T05:11:38;180.30;;;48.05;;
25023;SDS011;13033;50.936;5.334;2024-03-07T05:14:03;186.65;;;48.90;;
25023;SDS011;13033;50.936;5.334;2024-03-07T05:16:30;291.88;;;50.88;;
25023;SDS011;13033;50.936;5.334;2024-03-07T05:18:58;237.23;;;50.80;;
25023;SDS011;13033;50.936;5.334;2024-03-07T05:21:27;257.83;;;49.28;;
25023;SDS011;13033;50.936;5.334;2024-03-07T05:23:59;225.30;;;51.85;;
25023;SDS011;13033;50.936;5.334;2024-03-07T05:26:26;189.07;;;50.33;;
25023;SDS011;13033;50.936;5.334;2024-03-07T05:28:52;182.23;;;53.58;;
25023;SDS011;13033;50.936;5.334;2024-03-07T05:31:19;220.52;;;50.70;;
25023;SDS011;13033;50.936;5.334;2024-03-07T05:33:46;184.18;;;50.60;;
25023;SDS011;13033;50.936;5.334;2024-03-07T05:36:12;232.82;;;53.63;;
25023;SDS011;13033;50.936;5.334;2024-03-07T05:38:44;263.27;;;52.10;;
25023;SDS011;13033;50.936;5.334;2024-03-07T05:41:10;302.80;;;52.50;;
25023;SDS011;13033;50.936;5.334;2024-03-07T05:43:37;239.07;;;51.80;;
25023;SDS011;13033;50.936;5.334;2024-03-07T05:46:03;317.08;;;56.15;;
25023;SDS011;13033;50.936;5.334;2024-03-07T05:48:31;250.93;;;53.17;;
25023;SDS011;13033;50.936;5.334;2024-03-07T05:50:58;242.38;;;51.63;;
25023;SDS011;13033;50.936;5.334;2024-03-07T05:53:25;397.35;;;55.38;;
25023;SDS011;13033;50.936;5.334;2024-03-07T05:55:50;390.70;;;56.83;;
25023;SDS011;13033;50.936;5.334;2024-03-07T05:58:16;312.30;;;54.28;;
25023;SDS011;13033;50.936;5.334;2024-03-07T06:00:45;328.15;;;54.40;;
25023;SDS011;13033;50.936;5.334;2024-03-07T06:03:17;261.10;;;50.90;;
25023;SDS011;13033;50.936;5.334;2024-03-07T06:05:46;198.55;;;51.25;;
25023;SDS011;13033;50.936;5.334;2024-03-07T06:08:16;169.98;;;51.15;;
25023;SDS011;13033;50.936;5.334;2024-03-07T06:10:44;241.75;;;51.38;;
25023;SDS011;13033;50.936;5.334;2024-03-07T06:13:13;156.73;;;50.95;;
25023;SDS011;13033;50.936;5.334;2024-03-07T06:15:42;160.13;;;51.45;;
25023;SDS011;13033;50.936;5.334;2024-03-07T06:18:09;198.25;;;49.53;;
25023;SDS011;13033;50.936;5.334;2024-03-07T06:20:36;177.75;;;48.92;;
25023;SDS011;13033;50.936;5.334;2024-03-07T06:23:02;155.43;;;47.53;;
25023;SDS011;13033;50.936;5.334;2024-03-07T06:25:31;149.30;;;49.90;;
25023;SDS011;13033;50.936;5.334;2024-03-07T06:28:12;149.00;;;47.70;;
25023;SDS011;13033;50.936;5.334;2024-03-07T06:30:39;146.70;;;46.92;;
25023;SDS011;13033;50.936;5.334;2024-03-07T06:33:10;131.05;;;46.20;;
25023;SDS011;13033;50.936;5.334;2024-03-07T06:35:36;136.18;;;47.78;;
25023;SDS011;13033;50.936;5.334;2024-03-07T06:38:08;135.13;;;47.10;;
25023;SDS011;13033;50.936;5.334;2024-03-07T06:40:37;131.38;;;46.33;;
25023;SDS011;13033;50.936;5.334;2024-03-07T06:43:08;125.50;;;45.47;;
25023;SDS011;13033;50.936;5.334;2024-03-07T06:45:37;123.30;;;45.33;;
25023;SDS011;13033;50.936;5.334;2024-03-07T06:48:06;130.05;;;46.28;;
25023;SDS011;13033;50.936;5.334;2024-03-07T06:50:35;111.85;;;43.70;;
25023;SDS011;13033;50.936;5.334;2024-03-07T06:53:02;131.27;;;45.00;;
25023;SDS011;13033;50.936;5.334;2024-03-07T06:55:28;119.43;;;44.92;;
25023;SDS011;13033;50.936;5.334;2024-03-07T06:57:54;118.43;;;44.08;;
25023;SDS011;13033;50.936;5.334;2024-03-07T07:00:20;115.07;;;44.92;;
25023;SDS011;13033;50.936;5.334;2024-03-07T07:02:46;113.55;;;44.40;;
25023;SDS011;13033;50.936;5.334;2024-03-07T07:05:13;114.45;;;43.90;;
25023;SDS011;13033;50.936;5.334;2024-03-07T07:07:43;117.25;;;45.75;;
25023;SDS011;13033;50.936;5.334;2024-03-07T07:10:09;108.82;;;43.55;;
25023;SDS011;13033;50.936;5.334;2024-03-07T07:12:48;107.03;;;41.58;;
25023;SDS011;13033;50.936;5.334;2024-03-07T07:15:15;115.53;;;43.90;;
25023;SDS011;13033;50.936;5.334;2024-03-07T07:17:43;98.47;;;42.75;;
25023;SDS011;13033;50.936;5.334;2024-03-07T07:20:14;109.60;;;42.40;;
25023;SDS011;13033;50.936;5.334;2024-03-07T07:22:45;103.53;;;41.92;;
25023;SDS011;13033;50.936;5.334;2024-03-07T07:25:12;96.28;;;40.78;;
25023;SDS011;13033;50.936;5.334;2024-03-07T07:27:45;111.13;;;42.10;;
25023;SDS011;13033;50.936;5.334;2024-03-07T07:30:13;94.78;;;40.03;;
25023;SDS011;13033;50.936;5.334;2024-03-07T07:32:43;93.28;;;41.50;;
25023;SDS011;13033;50.936;5.334;2024-03-07T07:35:10;98.10;;;42.03;;
25023;SDS011;13033;50.936;5.334;2024-03-07T07:37:40;92.03;;;42.33;;
25023;SDS011;13033;50.936;5.334;2024-03-07T07:40:07;95.97;;;41.38;;
25023;SDS011;13033;50.936;5.334;2024-03-07T07:42:37;94.10;;;40.53;;
25023;SDS011;13033;50.936;5.334;2024-03-07T07:45:07;92.60;;;41.25;;
25023;SDS011;13033;50.936;5.334;2024-03-07T07:47:37;89.63;;;41.22;;
25023;SDS011;13033;50.936;5.334;2024-03-07T07:50:05;93.05;;;40.50;;
25023;SDS011;13033;50.936;5.334;2024-03-07T07:52:52;84.65;;;39.13;;
25023;SDS011;13033;50.936;5.334;2024-03-07T07:55:26;88.10;;;38.80;;
25023;SDS011;13033;50.936;5.334;2024-03-07T07:57:54;96.90;;;41.15;;
25023;SDS011;13033;50.936;5.334;2024-03-07T08:00:24;84.70;;;38.28;;
25023;SDS011;13033;50.936;5.334;2024-03-07T08:05:23;81.13;;;37.55;;
25023;SDS011;13033;50.936;5.334;2024-03-07T08:07:50;84.07;;;38.30;;
25023;SDS011;13033;50.936;5.334;2024-03-07T08:10:20;78.45;;;37.40;;
25023;SDS011;13033;50.936;5.334;2024-03-07T08:12:48;80.45;;;37.33;;
25023;SDS011;13033;50.936;5.334;2024-03-07T08:15:14;80.90;;;37.67;;
25023;SDS011;13033;50.936;5.334;2024-03-07T08:17:44;80.85;;;37.78;;
25023;SDS011;13033;50.936;5.334;2024-03-07T08:22:38;79.10;;;36.20;;
25023;SDS011;13033;50.936;5.334;2024-03-07T08:25:06;80.65;;;38.45;;
25023;SDS011;13033;50.936;5.334;2024-03-07T08:27:34;85.60;;;38.38;;
25023;SDS011;13033;50.936;5.334;2024-03-07T08:30:01;78.32;;;38.75;;
25023;SDS011;13033;50.936;5.334;2024-03-07T08:32:28;71.65;;;35.35;;
25023;SDS011;13033;50.936;5.334;2024-03-07T08:34:54;75.55;;;36.22;;
25023;SDS011;13033;50.936;5.334;2024-03-07T08:37:19;74.47;;;35.30;;
25023;SDS011;13033;50.936;5.334;2024-03-07T08:39:46;67.15;;;34.10;;
25023;SDS011;13033;50.936;5.334;2024-03-07T08:42:12;68.78;;;34.97;;
25023;SDS011;13033;50.936;5.334;2024-03-07T08:44:38;75.18;;;34.67;;
25023;SDS011;13033;50.936;5.334;2024-03-07T08:47:03;72.07;;;34.65;;
25023;SDS011;13033;50.936;5.334;2024-03-07T08:49:29;67.53;;;34.60;;
25023;SDS011;13033;50.936;5.334;2024-03-07T08:51:55;67.05;;;34.42;;
25023;SDS011;13033;50.936;5.334;2024-03-07T08:54:21;66.75;;;34.05;;
25023;SDS011;13033;50.936;5.334;2024-03-07T08:56:46;64.53;;;34.13;;
25023;SDS011;13033;50.936;5.334;2024-03-07T08:59:13;66.97;;;33.13;;
25023;SDS011;13033;50.936;5.334;2024-03-07T09:01:42;67.82;;;33.90;;
25023;SDS011;13033;50.936;5.334;2024-03-07T09:04:08;60.17;;;32.47;;
25023;SDS011;13033;50.936;5.334;2024-03-07T09:06:34;60.28;;;31.92;;
25023;SDS011;13033;50.936;5.334;2024-03-07T09:09:00;60.65;;;32.28;;
25023;SDS011;13033;50.936;5.334;2024-03-07T09:11:26;63.28;;;32.45;;
25023;SDS011;13033;50.936;5.334;2024-03-07T09:13:51;57.80;;;31.38;;
25023;SDS011;13033;50.936;5.334;2024-03-07T09:16:17;64.35;;;31.65;;
25023;SDS011;13033;50.936;5.334;2024-03-07T09:18:44;64.05;;;33.42;;
25023;SDS011;13033;50.936;5.334;2024-03-07T09:21:10;57.67;;;31.52;;
25023;SDS011;13033;50.936;5.334;2024-03-07T09:23:35;59.97;;;31.20;;
25023;SDS011;13033;50.936;5.334;2024-03-07T09:26:01;64.28;;;33.55;;
25023;SDS011;13033;50.936;5.334;2024-03-07T09:28:27;58.30;;;30.80;;
25023;SDS011;13033;50.936;5.334;2024-03-07T09:30:53;57.63;;;30.75;;
25023;SDS011;13033;50.936;5.334;2024-03-07T09:33:20;60.33;;;30.38;;
25023;SDS011;13033;50.936;5.334;2024-03-07T09:35:46;51.05;;;29.88;;
25023;SDS011;13033;50.936;5.334;2024-03-07T09:38:13;59.10;;;31.52;;
25023;SDS011;13033;50.936;5.334;2024-03-07T09:40:39;58.03;;;31.15;;
25023;SDS011;13033;50.936;5.334;2024-03-07T09:43:06;56.63;;;31.30;;
25023;SDS011;13033;50.936;5.334;2024-03-07T09:45:34;57.22;;;30.65;;
25023;SDS011;13033;50.936;5.334;2024-03-07T09:48:03;56.90;;;30.17;;
25023;SDS011;13033;50.936;5.334;2024-03-07T09:50:30;55.38;;;30.80;;
25023;SDS011;13033;50.936;5.334;2024-03-07T09:52:56;53.88;;;30.88;;
25023;SDS011;13033;50.936;5.334;2024-03-07T09:55:23;52.28;;;29.88;;
25023;SDS011;13033;50.936;5.334;2024-03-07T09:57:49;55.70;;;30.58;;
25023;SDS011;13033;50.936;5.334;2024-03-07T10:00:19;52.63;;;29.80;;
25023;SDS011;13033;50.936;5.334;2024-03-07T10:02:54;51.97;;;30.15;;
25023;SDS011;13033;50.936;5.334;2024-03-07T10:05:24;55.28;;;29.50;;
25023;SDS011;13033;50.936;5.334;2024-03-07T10:07:52;56.35;;;29.98;;
25023;SDS011;13033;50.936;5.334;2024-03-07T10:10:19;50.17;;;30.33;;
25023;SDS011;13033;50.936;5.334;2024-03-07T10:12:45;51.38;;;29.05;;
25023;SDS011;13033;50.936;5.334;2024-03-07T10:15:11;51.67;;;29.52;;
25023;SDS011;13033;50.936;5.334;2024-03-07T10:17:38;49.67;;;28.52;;
25023;SDS011;13033;50.936;5.334;2024-03-07T10:20:05;52.47;;;29.15;;
25023;SDS011;13033;50.936;5.334;2024-03-07T10:22:35;52.90;;;28.60;;
25023;SDS011;13033;50.936;5.334;2024-03-07T10:25:01;52.53;;;29.27;;
25023;SDS011;13033;50.936;5.334;2024-03-07T10:27:29;50.08;;;28.98;;
25023;SDS011;13033;50.936;5.334;2024-03-07T10:29:54;51.90;;;28.60;;
25023;SDS011;13033;50.936;5.334;2024-03-07T10:32:23;48.80;;;28.00;;
25023;SDS011;13033;50.936;5.334;2024-03-07T10:34:50;48.65;;;27.48;;
25023;SDS011;13033;50.936;5.334;2024-03-07T10:37:17;49.35;;;28.40;;
25023;SDS011;13033;50.936;5.334;2024-03-07T10:39:48;48.47;;;26.27;;
25023;SDS011;13033;50.936;5.334;2024-03-07T10:42:15;51.72;;;28.25;;
25023;SDS011;13033;50.936;5.334;2024-03-07T10:44:45;47.03;;;28.33;;
25023;SDS011;13033;50.936;5.334;2024-03-07T10:47:19;52.38;;;28.42;;
25023;SDS011;13033;50.936;5.334;2024-03-07T10:52:40;48.80;;;27.75;;
25023;SDS011;13033;50.936;5.334;2024-03-07T10:55:18;49.00;;;28.60;;
25023;SDS011;13033;50.936;5.334;2024-03-07T10:58:14;50.25;;;29.13;;
25023;SDS011;13033;50.936;5.334;2024-03-07T11:01:01;54.60;;;31.80;;
25023;SDS011;13033;50.936;5.334;2024-03-07T11:03:31;52.70;;;30.63;;
25023;SDS011;13033;50.936;5.334;2024-03-07T11:05:58;47.47;;;29.70;;
25023;SDS011;13033;50.936;5.334;2024-03-07T11:08:30;50.75;;;30.05;;
25023;SDS011;13033;50.936;5.334;2024-03-07T11:10:56;52.58;;;30.42;;
25023;SDS011;13033;50.936;5.334;2024-03-07T11:13:22;50.55;;;29.58;;
25023;SDS011;13033;50.936;5.334;2024-03-07T11:15:49;45.10;;;27.98;;
25023;SDS011;13033;50.936;5.334;2024-03-07T11:18:16;44.70;;;27.20;;
25023;SDS011;13033;50.936;5.334;2024-03-07T11:20:42;43.58;;;25.60;;
25023;SDS011;13033;50.936;5.334;2024-03-07T11:23:24;47.65;;;27.50;;
25023;SDS011;13033;50.936;5.334;2024-03-07T11:26:04;44.72;;;25.90;;
25023;SDS011;13033;50.936;5.334;2024-03-07T11:28:33;46.00;;;25.48;;
25023;SDS011;13033;50.936;5.334;2024-03-07T11:34:13;38.97;;;24.17;;
25023;SDS011;13033;50.936;5.334;2024-03-07T11:36:44;40.40;;;23.70;;
25023;SDS011;13033;50.936;5.334;2024-03-07T11:42:22;43.92;;;24.08;;
25023;SDS011;13033;50.936;5.334;2024-03-07T11:44:50;40.97;;;23.55;;
25023;SDS011;13033;50.936;5.334;2024-03-07T11:47:17;37.67;;;21.48;;
25023;SDS011;13033;50.936;5.334;2024-03-07T11:49:44;40.22;;;22.90;;
25023;SDS011;13033;50.936;5.334;2024-03-07T11:52:14;38.88;;;22.45;;
25023;SDS011;13033;50.936;5.334;2024-03-07T11:54:41;35.65;;;22.73;;
25023;SDS011;13033;50.936;5.334;2024-03-07T11:57:18;39.20;;;22.38;;
25023;SDS011;13033;50.936;5.334;2024-03-07T11:59:57;37.05;;;22.38;;
25023;SDS011;13033;50.936;5.334;2024-03-07T12:02:26;31.83;;;20.00;;
25023;SDS011;13033;50.936;5.334;2024-03-07T12:04:54;30.63;;;18.95;;
25023;SDS011;13033;50.936;5.334;2024-03-07T12:07:20;31.63;;;19.15;;
25023;SDS011;13033;50.936;5.334;2024-03-07T12:09:49;33.33;;;19.08;;
25023;SDS011;13033;50.936;5.334;2024-03-07T12:14:47;36.10;;;21.52;;
25023;SDS011;13033;50.936;5.334;2024-03-07T12:17:13;33.47;;;20.75;;
25023;SDS011;13033;50.936;5.334;2024-03-07T12:19:43;32.90;;;18.85;;
25023;SDS011;13033;50.936;5.334;2024-03-07T12:22:09;32.60;;;19.65;;
25023;SDS011;13033;50.936;5.334;2024-03-07T12:24:40;32.78;;;20.73;;
25023;SDS011;13033;50.936;5.334;2024-03-07T12:27:10;32.83;;;21.35;;
25023;SDS011;13033;50.936;5.334;2024-03-07T12:29:37;30.05;;;19.60;;
25023;SDS011;13033;50.936;5.334;2024-03-07T12:32:07;32.55;;;19.67;;
25023;SDS011;13033;50.936;5.334;2024-03-07T12:34:36;31.10;;;19.33;;
25023;SDS011;13033;50.936;5.334;2024-03-07T12:37:08;32.80;;;19.05;;
25023;SDS011;13033;50.936;5.334;2024-03-07T12:39:34;33.50;;;19.13;;
25023;SDS011;13033;50.936;5.334;2024-03-07T12:42:03;29.65;;;19.35;;
25023;SDS011;13033;50.936;5.334;2024-03-07T12:44:40;31.70;;;18.63;;
25023;SDS011;13033;50.936;5.334;2024-03-07T12:49:42;31.55;;;18.77;;
25023;SDS011;13033;50.936;5.334;2024-03-07T12:52:08;31.85;;;20.23;;
25023;SDS011;13033;50.936;5.334;2024-03-07T12:54:35;29.55;;;18.30;;
25023;SDS011;13033;50.936;5.334;2024-03-07T12:57:13;35.38;;;20.13;;
25023;SDS011;13033;50.936;5.334;2024-03-07T12:59:38;34.35;;;19.70;;
25023;SDS011;13033;50.936;5.334;2024-03-07T13:02:07;33.10;;;19.40;;
25023;SDS011;13033;50.936;5.334;2024-03-07T13:04:34;36.80;;;20.40;;
25023;SDS011;13033;50.936;5.334;2024-03-07T13:07:02;32.55;;;19.60;;
25023;SDS011;13033;50.936;5.334;2024-03-07T13:09:35;33.70;;;20.05;;
25023;SDS011;13033;50.936;5.334;2024-03-07T13:12:02;35.42;;;20.60;;
25023;SDS011;13033;50.936;5.334;2024-03-07T13:14:29;36.40;;;20.13;;
25023;SDS011;13033;50.936;5.334;2024-03-07T13:17:01;34.78;;;20.50;;
25023;SDS011;13033;50.936;5.334;2024-03-07T13:19:28;33.13;;;17.35;;
25023;SDS011;13033;50.936;5.334;2024-03-07T13:21:54;35.53;;;21.33;;
25023;SDS011;13033;50.936;5.334;2024-03-07T13:24:24;32.17;;;20.90;;
25023;SDS011;13033;50.936;5.334;2024-03-07T13:26:51;31.73;;;19.38;;
25023;SDS011;13033;50.936;5.334;2024-03-07T13:29:17;32.85;;;20.65;;
25023;SDS011;13033;50.936;5.334;2024-03-07T13:31:49;35.80;;;19.80;;
25023;SDS011;13033;50.936;5.334;2024-03-07T13:34:16;34.35;;;18.88;;
25023;SDS011;13033;50.936;5.334;2024-03-07T13:36:43;30.50;;;19.38;;
25023;SDS011;13033;50.936;5.334;2024-03-07T13:39:09;32.10;;;20.10;;
25023;SDS011;13033;50.936;5.334;2024-03-07T13:41:40;28.75;;;18.58;;
25023;SDS011;13033;50.936;5.334;2024-03-07T13:44:06;32.35;;;18.50;;
25023;SDS011;13033;50.936;5.334;2024-03-07T13:46:32;31.27;;;17.27;;
25023;SDS011;13033;50.936;5.334;2024-03-07T13:48:59;31.13;;;18.70;;
25023;SDS011;13033;50.936;5.334;2024-03-07T13:51:35;24.75;;;14.13;;
25023;SDS011;13033;50.936;5.334;2024-03-07T13:54:02;28.15;;;15.70;;
25023;SDS011;13033;50.936;5.334;2024-03-07T13:57:36;32.47;;;18.85;;
25023;SDS011;13033;50.936;5.334;2024-03-07T14:00:16;30.20;;;19.23;;
25023;SDS011;13033;50.936;5.334;2024-03-07T14:05:44;28.92;;;16.38;;
25023;SDS011;13033;50.936;5.334;2024-03-07T14:29:22;29.13;;;15.88;;
25023;SDS011;13033;50.936;5.334;2024-03-07T14:32:10;26.23;;;15.52;;
25023;SDS011;13033;50.936;5.334;2024-03-07T14:34:43;29.88;;;17.33;;
25023;SDS011;13033;50.936;5.334;2024-03-07T14:40:55;32.90;;;16.35;;
25023;SDS011;13033;50.936;5.334;2024-03-07T14:43:21;24.15;;;16.25;;
25023;SDS011;13033;50.936;5.334;2024-03-07T14:45:47;30.75;;;16.40;;
25023;SDS011;13033;50.936;5.334;2024-03-07T14:48:14;26.40;;;15.48;;
25023;SDS011;13033;50.936;5.334;2024-03-07T14:50:44;27.95;;;15.68;;
25023;SDS011;13033;50.936;5.334;2024-03-07T14:53:12;28.52;;;15.23;;
25023;SDS011;13033;50.936;5.334;2024-03-07T14:55:41;26.35;;;15.35;;
25023;SDS011;13033;50.936;5.334;2024-03-07T14:58:08;30.02;;;15.68;;
25023;SDS011;13033;50.936;5.334;2024-03-07T15:00:36;24.75;;;15.68;;
25023;SDS011;13033;50.936;5.334;2024-03-07T15:03:06;27.13;;;15.50;;
25023;SDS011;13033;50.936;5.334;2024-03-07T15:05:34;30.55;;;16.63;;
25023;SDS011;13033;50.936;5.334;2024-03-07T15:08:00;31.05;;;16.23;;
25023;SDS011;13033;50.936;5.334;2024-03-07T15:10:27;20.85;;;13.55;;